To NAV CANADA Home Page Login to a new session Search on AWWS site Feedback and Comments Disclaimer Vers la page française équivalente Tips FAQ What's new on the site To the Forecasts and Observations / NOTAM section To "File a Flight Plan" website Publications and other links Update of the User's profile FIC Telephone Numbers My Weather Data Folder Route Weather Data Regional Weather Data Local Weather Data To the Forecasts and Observations / NOTAM section
Request Generated 12/04/2016 at 22:20:10 UTC . Weather information available at that time is displayed.

METAR/TAF

OLD CROW/YT    

METAR CYOC 042200Z 10004KT 060V130 20SM FEW016 SCT040 SCT080 SCT210
M24/M29 A3082 RMK SF1SC2AC1CI1 AC TR SLP476=
METAR CYOC 042100Z 04008KT 15SM DRSN FEW016 SCT040 BKN080 BKN210
M23/M28 A3081 RMK SF1SC3AC1CI1 SLP471=
SPECI CYOC 042040Z 02011KT 15SM DRSN FEW016 SCT040 BKN080 BKN210
M23/M27 A3080 RMK SF1SC3AC1CI1 SLP469=
METAR CYOC 042000Z 03007KT 12SM -SN FEW016 BKN040 OVC080 M23/M27
A3079 RMK SF1SC6AC1 SLP467=

TAF CYOC 041738Z 0418/0502 05012KT P6SM FEW015 SCT040 BKN080 TEMPO
0418/0502 5SM -SN SCT015 BKN040
RMK NXT FCST BY 050000Z=
Your time UTC time
Weather data provided by Environment Canada and NAV CANADA